createdAt,value
2022-10-23T21:19:29.577Z,24.20
2022-10-23T21:21:57.826Z,28.70
2022-10-23T21:24:27.016Z,26.50
2022-10-23T21:26:55.948Z,26.40
2022-10-23T21:29:24.472Z,26.20
2022-10-23T21:32:02.113Z,29.00
2022-10-23T21:34:31.288Z,27.40
2022-10-23T21:37:12.591Z,31.80
2022-10-23T21:39:44.777Z,27.60
2022-10-23T21:42:14.500Z,27.30
2022-10-23T21:44:43.886Z,26.00
2022-10-23T21:47:12.242Z,23.20
2022-10-23T21:49:40.901Z,23.10
2022-10-23T21:52:10.057Z,22.00
2022-10-23T21:54:39.434Z,24.00
2022-10-23T21:57:15.111Z,18.90
2022-10-23T21:59:44.331Z,24.90
2022-10-23T22:02:13.565Z,25.40
2022-10-23T22:04:42.491Z,28.20
2022-10-23T22:07:15.218Z,25.20
2022-10-23T22:09:44.731Z,23.70
2022-10-23T22:12:13.894Z,23.50
2022-10-23T22:14:43.093Z,23.10
2022-10-23T22:17:11.851Z,22.80
2022-10-23T22:19:40.983Z,23.50
2022-10-23T22:22:10.198Z,20.30
2022-10-23T22:24:39.122Z,21.90
2022-10-23T22:27:08.251Z,21.20
2022-10-23T22:29:37.380Z,20.00
2022-10-23T22:32:06.548Z,19.90
2022-10-23T22:34:51.740Z,22.00
2022-10-23T22:37:21.331Z,20.10
2022-10-23T22:39:53.576Z,21.70
2022-10-23T22:42:22.691Z,19.00
2022-10-23T22:44:51.589Z,17.20
2022-10-23T22:47:20.609Z,17.40
2022-10-23T22:49:49.412Z,19.50
2022-10-23T22:52:17.916Z,20.10
2022-10-23T22:54:48.589Z,17.10
2022-10-23T22:57:17.541Z,20.00
2022-10-23T22:59:46.075Z,21.70
2022-10-23T23:02:14.998Z,18.90
2022-10-23T23:04:43.658Z,18.90
2022-10-23T23:07:13.373Z,19.60
2022-10-23T23:09:44.419Z,18.90
2022-10-23T23:12:14.736Z,18.20
2022-10-23T23:14:44.128Z,17.90
2022-10-23T23:17:13.347Z,15.20
2022-10-23T23:19:42.066Z,16.60
2022-10-23T23:22:10.683Z,15.60
2022-10-23T23:24:39.356Z,18.80
2022-10-23T23:27:08.090Z,17.80
2022-10-23T23:29:37.193Z,17.40
2022-10-23T23:32:06.601Z,17.20
2022-10-23T23:34:35.588Z,19.30
2022-10-23T23:37:04.046Z,19.30
2022-10-23T23:39:33.119Z,16.90
2022-10-23T23:42:02.324Z,21.70
2022-10-23T23:44:31.333Z,23.10
2022-10-23T23:47:00.738Z,18.30
2022-10-23T23:49:29.794Z,19.00
2022-10-23T23:51:59.248Z,22.30
2022-10-23T23:54:28.282Z,20.40
2022-10-23T23:57:00.351Z,18.90
2022-10-23T23:59:29.569Z,21.20
